sensor_id;sensor_type;location;lat;lon;timestamp;P1;durP1;ratioP1;P2;durP2;ratioP2
52208;SDS011;38507;53.132;6.394;2022-08-21T00:00:42;9.93;;;2.53;;
52208;SDS011;38507;53.132;6.394;2022-08-21T00:03:09;7.38;;;2.70;;
52208;SDS011;38507;53.132;6.394;2022-08-21T00:05:37;10.93;;;2.83;;
52208;SDS011;38507;53.132;6.394;2022-08-21T00:08:05;5.00;;;2.33;;
52208;SDS011;38507;53.132;6.394;2022-08-21T00:10:31;7.25;;;2.65;;
52208;SDS011;38507;53.132;6.394;2022-08-21T00:12:57;7.60;;;2.50;;
52208;SDS011;38507;53.132;6.394;2022-08-21T00:15:25;7.47;;;2.67;;
52208;SDS011;38507;53.132;6.394;2022-08-21T00:17:54;9.32;;;3.20;;
52208;SDS011;38507;53.132;6.394;2022-08-21T00:20:21;8.55;;;3.10;;
52208;SDS011;38507;53.132;6.394;2022-08-21T00:22:48;6.88;;;3.05;;
52208;SDS011;38507;53.132;6.394;2022-08-21T00:25:14;8.20;;;2.80;;
52208;SDS011;38507;53.132;6.394;2022-08-21T00:27:40;6.55;;;2.60;;
52208;SDS011;38507;53.132;6.394;2022-08-21T00:30:08;7.55;;;3.33;;
52208;SDS011;38507;53.132;6.394;2022-08-21T00:32:36;11.02;;;3.92;;
52208;SDS011;38507;53.132;6.394;2022-08-21T00:35:03;9.05;;;3.42;;
52208;SDS011;38507;53.132;6.394;2022-08-21T00:37:30;8.45;;;3.03;;
52208;SDS011;38507;53.132;6.394;2022-08-21T00:39:56;9.48;;;3.30;;
52208;SDS011;38507;53.132;6.394;2022-08-21T00:42:22;5.68;;;2.95;;
52208;SDS011;38507;53.132;6.394;2022-08-21T00:44:48;4.22;;;2.53;;
52208;SDS011;38507;53.132;6.394;2022-08-21T00:47:15;6.97;;;3.08;;
52208;SDS011;38507;53.132;6.394;2022-08-21T00:49:41;7.53;;;3.33;;
52208;SDS011;38507;53.132;6.394;2022-08-21T00:52:09;10.88;;;3.30;;
52208;SDS011;38507;53.132;6.394;2022-08-21T00:54:37;8.75;;;3.20;;
52208;SDS011;38507;53.132;6.394;2022-08-21T00:57:07;9.07;;;3.63;;
52208;SDS011;38507;53.132;6.394;2022-08-21T00:59:37;11.02;;;3.67;;
52208;SDS011;38507;53.132;6.394;2022-08-21T01:02:06;7.63;;;3.42;;
52208;SDS011;38507;53.132;6.394;2022-08-21T01:04:33;14.10;;;3.50;;
52208;SDS011;38507;53.132;6.394;2022-08-21T01:06:59;11.05;;;3.72;;
52208;SDS011;38507;53.132;6.394;2022-08-21T01:09:25;8.43;;;3.90;;
52208;SDS011;38507;53.132;6.394;2022-08-21T01:11:51;8.35;;;3.40;;
52208;SDS011;38507;53.132;6.394;2022-08-21T01:14:16;8.65;;;3.58;;
52208;SDS011;38507;53.132;6.394;2022-08-21T01:16:47;11.57;;;3.40;;
52208;SDS011;38507;53.132;6.394;2022-08-21T01:19:15;8.93;;;3.50;;
52208;SDS011;38507;53.132;6.394;2022-08-21T01:21:43;10.63;;;3.60;;
52208;SDS011;38507;53.132;6.394;2022-08-21T01:24:08;6.97;;;3.80;;
52208;SDS011;38507;53.132;6.394;2022-08-21T01:26:35;8.57;;;3.30;;
52208;SDS011;38507;53.132;6.394;2022-08-21T01:29:04;11.13;;;3.75;;
52208;SDS011;38507;53.132;6.394;2022-08-21T01:31:35;7.85;;;3.65;;
52208;SDS011;38507;53.132;6.394;2022-08-21T01:34:02;12.05;;;4.07;;
52208;SDS011;38507;53.132;6.394;2022-08-21T01:36:28;10.23;;;3.80;;
52208;SDS011;38507;53.132;6.394;2022-08-21T01:38:54;10.48;;;3.35;;
52208;SDS011;38507;53.132;6.394;2022-08-21T01:41:21;7.57;;;4.07;;
52208;SDS011;38507;53.132;6.394;2022-08-21T01:43:46;7.93;;;3.58;;
52208;SDS011;38507;53.132;6.394;2022-08-21T01:46:12;9.77;;;3.70;;
52208;SDS011;38507;53.132;6.394;2022-08-21T01:48:38;10.00;;;3.72;;
52208;SDS011;38507;53.132;6.394;2022-08-21T01:51:05;12.98;;;4.43;;
52208;SDS011;38507;53.132;6.394;2022-08-21T01:53:31;10.93;;;4.30;;
52208;SDS011;38507;53.132;6.394;2022-08-21T01:56:00;7.65;;;3.97;;
52208;SDS011;38507;53.132;6.394;2022-08-21T01:58:27;8.02;;;3.88;;
52208;SDS011;38507;53.132;6.394;2022-08-21T02:00:53;12.15;;;4.82;;
52208;SDS011;38507;53.132;6.394;2022-08-21T02:03:19;11.07;;;4.35;;
52208;SDS011;38507;53.132;6.394;2022-08-21T02:05:44;10.15;;;4.30;;
52208;SDS011;38507;53.132;6.394;2022-08-21T02:08:10;9.30;;;4.10;;
52208;SDS011;38507;53.132;6.394;2022-08-21T02:10:36;10.73;;;4.57;;
52208;SDS011;38507;53.132;6.394;2022-08-21T02:13:02;14.23;;;5.07;;
52208;SDS011;38507;53.132;6.394;2022-08-21T02:15:28;9.27;;;5.35;;
52208;SDS011;38507;53.132;6.394;2022-08-21T02:17:56;11.18;;;4.80;;
52208;SDS011;38507;53.132;6.394;2022-08-21T02:20:25;11.07;;;5.25;;
52208;SDS011;38507;53.132;6.394;2022-08-21T02:23:11;10.93;;;4.45;;
52208;SDS011;38507;53.132;6.394;2022-08-21T02:25:37;13.30;;;4.95;;
52208;SDS011;38507;53.132;6.394;2022-08-21T02:28:05;10.77;;;5.68;;
52208;SDS011;38507;53.132;6.394;2022-08-21T02:30:34;11.25;;;4.85;;
52208;SDS011;38507;53.132;6.394;2022-08-21T02:33:03;9.30;;;5.13;;
52208;SDS011;38507;53.132;6.394;2022-08-21T02:35:30;13.50;;;5.07;;
52208;SDS011;38507;53.132;6.394;2022-08-21T02:38:00;13.40;;;4.90;;
52208;SDS011;38507;53.132;6.394;2022-08-21T02:40:29;10.00;;;4.95;;
52208;SDS011;38507;53.132;6.394;2022-08-21T02:42:58;12.90;;;6.25;;
52208;SDS011;38507;53.132;6.394;2022-08-21T02:45:24;10.65;;;5.53;;
52208;SDS011;38507;53.132;6.394;2022-08-21T02:47:58;11.90;;;5.72;;
52208;SDS011;38507;53.132;6.394;2022-08-21T02:50:30;15.25;;;5.40;;
52208;SDS011;38507;53.132;6.394;2022-08-21T02:53:03;10.48;;;5.05;;
52208;SDS011;38507;53.132;6.394;2022-08-21T02:55:30;15.52;;;5.45;;
52208;SDS011;38507;53.132;6.394;2022-08-21T02:57:57;13.00;;;5.47;;
52208;SDS011;38507;53.132;6.394;2022-08-21T03:00:24;19.80;;;5.80;;
52208;SDS011;38507;53.132;6.394;2022-08-21T03:02:51;15.15;;;5.90;;
52208;SDS011;38507;53.132;6.394;2022-08-21T03:05:18;11.65;;;5.85;;
52208;SDS011;38507;53.132;6.394;2022-08-21T03:07:45;10.93;;;5.15;;
52208;SDS011;38507;53.132;6.394;2022-08-21T03:10:12;11.20;;;5.70;;
52208;SDS011;38507;53.132;6.394;2022-08-21T03:12:38;13.23;;;5.72;;
52208;SDS011;38507;53.132;6.394;2022-08-21T03:15:08;12.48;;;5.70;;
52208;SDS011;38507;53.132;6.394;2022-08-21T03:17:35;11.30;;;5.88;;
52208;SDS011;38507;53.132;6.394;2022-08-21T03:20:02;12.23;;;5.80;;
52208;SDS011;38507;53.132;6.394;2022-08-21T03:22:29;14.00;;;5.93;;
52208;SDS011;38507;53.132;6.394;2022-08-21T03:24:55;10.13;;;5.82;;
52208;SDS011;38507;53.132;6.394;2022-08-21T03:27:22;10.70;;;4.72;;
52208;SDS011;38507;53.132;6.394;2022-08-21T03:29:49;10.13;;;5.10;;
52208;SDS011;38507;53.132;6.394;2022-08-21T03:32:14;11.93;;;6.20;;
52208;SDS011;38507;53.132;6.394;2022-08-21T03:34:40;9.82;;;5.95;;
52208;SDS011;38507;53.132;6.394;2022-08-21T03:37:07;14.75;;;5.80;;
52208;SDS011;38507;53.132;6.394;2022-08-21T03:39:33;12.73;;;5.55;;
52208;SDS011;38507;53.132;6.394;2022-08-21T03:41:59;10.55;;;5.70;;
52208;SDS011;38507;53.132;6.394;2022-08-21T03:44:26;10.43;;;5.60;;
52208;SDS011;38507;53.132;6.394;2022-08-21T03:46:53;14.60;;;5.72;;
52208;SDS011;38507;53.132;6.394;2022-08-21T03:49:20;8.90;;;5.38;;
52208;SDS011;38507;53.132;6.394;2022-08-21T03:51:46;11.48;;;5.38;;
52208;SDS011;38507;53.132;6.394;2022-08-21T03:54:11;12.63;;;5.28;;
52208;SDS011;38507;53.132;6.394;2022-08-21T03:56:37;9.60;;;5.55;;
52208;SDS011;38507;53.132;6.394;2022-08-21T03:59:04;12.43;;;5.35;;
52208;SDS011;38507;53.132;6.394;2022-08-21T04:01:30;15.43;;;5.50;;
52208;SDS011;38507;53.132;6.394;2022-08-21T04:03:56;9.40;;;5.28;;
52208;SDS011;38507;53.132;6.394;2022-08-21T04:06:22;11.25;;;6.30;;
52208;SDS011;38507;53.132;6.394;2022-08-21T04:08:48;12.63;;;5.45;;
52208;SDS011;38507;53.132;6.394;2022-08-21T04:11:14;10.90;;;4.88;;
52208;SDS011;38507;53.132;6.394;2022-08-21T04:13:39;13.13;;;5.57;;
52208;SDS011;38507;53.132;6.394;2022-08-21T04:16:06;12.13;;;6.03;;
52208;SDS011;38507;53.132;6.394;2022-08-21T04:18:32;11.80;;;5.28;;
52208;SDS011;38507;53.132;6.394;2022-08-21T04:20:58;10.02;;;5.40;;
52208;SDS011;38507;53.132;6.394;2022-08-21T04:23:25;14.40;;;5.93;;
52208;SDS011;38507;53.132;6.394;2022-08-21T04:25:52;10.90;;;4.78;;
52208;SDS011;38507;53.132;6.394;2022-08-21T04:28:19;11.40;;;5.55;;
52208;SDS011;38507;53.132;6.394;2022-08-21T04:30:46;13.40;;;5.05;;
52208;SDS011;38507;53.132;6.394;2022-08-21T04:33:12;10.32;;;5.32;;
52208;SDS011;38507;53.132;6.394;2022-08-21T04:35:37;9.75;;;5.22;;
52208;SDS011;38507;53.132;6.394;2022-08-21T04:38:03;10.23;;;5.47;;
52208;SDS011;38507;53.132;6.394;2022-08-21T04:40:29;10.43;;;5.03;;
52208;SDS011;38507;53.132;6.394;2022-08-21T04:42:58;12.07;;;5.88;;
52208;SDS011;38507;53.132;6.394;2022-08-21T04:45:29;13.02;;;5.72;;
52208;SDS011;38507;53.132;6.394;2022-08-21T04:47:57;12.30;;;5.82;;
52208;SDS011;38507;53.132;6.394;2022-08-21T04:50:26;12.35;;;5.78;;
52208;SDS011;38507;53.132;6.394;2022-08-21T04:53:01;9.95;;;5.90;;
52208;SDS011;38507;53.132;6.394;2022-08-21T04:55:26;13.20;;;5.68;;
52208;SDS011;38507;53.132;6.394;2022-08-21T04:57:53;11.65;;;5.60;;
52208;SDS011;38507;53.132;6.394;2022-08-21T05:00:21;17.42;;;6.50;;
52208;SDS011;38507;53.132;6.394;2022-08-21T05:02:49;12.50;;;5.80;;
52208;SDS011;38507;53.132;6.394;2022-08-21T05:05:19;12.93;;;5.95;;
52208;SDS011;38507;53.132;6.394;2022-08-21T05:07:45;16.70;;;6.38;;
52208;SDS011;38507;53.132;6.394;2022-08-21T05:10:12;15.70;;;5.70;;
52208;SDS011;38507;53.132;6.394;2022-08-21T05:12:39;13.02;;;5.93;;
52208;SDS011;38507;53.132;6.394;2022-08-21T05:15:07;11.98;;;5.50;;
52208;SDS011;38507;53.132;6.394;2022-08-21T05:17:33;13.68;;;5.32;;
52208;SDS011;38507;53.132;6.394;2022-08-21T05:19:59;14.13;;;5.70;;
52208;SDS011;38507;53.132;6.394;2022-08-21T05:22:24;13.07;;;6.13;;
52208;SDS011;38507;53.132;6.394;2022-08-21T05:24:51;11.90;;;5.55;;
52208;SDS011;38507;53.132;6.394;2022-08-21T05:27:17;10.30;;;5.78;;
52208;SDS011;38507;53.132;6.394;2022-08-21T05:29:42;13.38;;;5.90;;
52208;SDS011;38507;53.132;6.394;2022-08-21T05:32:12;12.52;;;5.88;;
52208;SDS011;38507;53.132;6.394;2022-08-21T05:34:38;14.48;;;6.20;;
52208;SDS011;38507;53.132;6.394;2022-08-21T05:37:04;12.77;;;6.03;;
52208;SDS011;38507;53.132;6.394;2022-08-21T05:39:30;11.20;;;5.38;;
52208;SDS011;38507;53.132;6.394;2022-08-21T05:41:56;14.27;;;6.07;;
52208;SDS011;38507;53.132;6.394;2022-08-21T05:44:22;14.75;;;6.75;;
52208;SDS011;38507;53.132;6.394;2022-08-21T05:46:48;10.55;;;5.85;;
52208;SDS011;38507;53.132;6.394;2022-08-21T05:49:13;13.25;;;6.07;;
52208;SDS011;38507;53.132;6.394;2022-08-21T05:51:40;12.27;;;5.85;;
52208;SDS011;38507;53.132;6.394;2022-08-21T05:54:06;12.52;;;5.63;;
52208;SDS011;38507;53.132;6.394;2022-08-21T05:56:32;14.82;;;6.05;;
52208;SDS011;38507;53.132;6.394;2022-08-21T05:58:58;10.90;;;5.82;;
52208;SDS011;38507;53.132;6.394;2022-08-21T06:01:24;10.57;;;5.80;;
52208;SDS011;38507;53.132;6.394;2022-08-21T06:03:50;13.43;;;5.38;;
52208;SDS011;38507;53.132;6.394;2022-08-21T06:06:15;13.85;;;5.72;;
52208;SDS011;38507;53.132;6.394;2022-08-21T06:08:41;11.82;;;5.53;;
52208;SDS011;38507;53.132;6.394;2022-08-21T06:11:07;13.05;;;5.13;;
52208;SDS011;38507;53.132;6.394;2022-08-21T06:13:33;12.80;;;5.85;;
52208;SDS011;38507;53.132;6.394;2022-08-21T06:16:04;12.65;;;6.35;;
52208;SDS011;38507;53.132;6.394;2022-08-21T06:18:32;12.65;;;5.25;;
52208;SDS011;38507;53.132;6.394;2022-08-21T06:20:58;10.27;;;4.97;;
52208;SDS011;38507;53.132;6.394;2022-08-21T06:23:24;13.77;;;5.90;;
52208;SDS011;38507;53.132;6.394;2022-08-21T06:25:49;12.50;;;5.78;;
52208;SDS011;38507;53.132;6.394;2022-08-21T06:28:15;16.60;;;5.95;;
52208;SDS011;38507;53.132;6.394;2022-08-21T06:30:41;20.63;;;5.50;;
52208;SDS011;38507;53.132;6.394;2022-08-21T06:33:06;10.60;;;5.45;;
52208;SDS011;38507;53.132;6.394;2022-08-21T06:35:32;11.63;;;5.03;;
52208;SDS011;38507;53.132;6.394;2022-08-21T06:37:59;11.88;;;4.97;;
52208;SDS011;38507;53.132;6.394;2022-08-21T06:40:25;15.55;;;5.43;;
52208;SDS011;38507;53.132;6.394;2022-08-21T06:42:52;12.20;;;4.88;;
52208;SDS011;38507;53.132;6.394;2022-08-21T06:45:17;16.00;;;5.22;;
52208;SDS011;38507;53.132;6.394;2022-08-21T06:47:43;12.30;;;5.28;;
52208;SDS011;38507;53.132;6.394;2022-08-21T06:50:09;14.88;;;5.28;;
52208;SDS011;38507;53.132;6.394;2022-08-21T06:52:35;15.82;;;4.75;;
52208;SDS011;38507;53.132;6.394;2022-08-21T06:55:02;12.65;;;4.38;;
52208;SDS011;38507;53.132;6.394;2022-08-21T06:57:30;14.00;;;4.07;;
52208;SDS011;38507;53.132;6.394;2022-08-21T06:59:55;15.45;;;4.38;;
52208;SDS011;38507;53.132;6.394;2022-08-21T07:02:21;12.32;;;3.70;;
52208;SDS011;38507;53.132;6.394;2022-08-21T07:04:46;11.57;;;3.88;;
52208;SDS011;38507;53.132;6.394;2022-08-21T07:07:12;13.35;;;4.00;;
52208;SDS011;38507;53.132;6.394;2022-08-21T07:09:38;16.50;;;4.70;;
52208;SDS011;38507;53.132;6.394;2022-08-21T07:12:04;13.13;;;3.47;;
52208;SDS011;38507;53.132;6.394;2022-08-21T07:14:30;13.93;;;3.83;;
52208;SDS011;38507;53.132;6.394;2022-08-21T07:16:56;11.18;;;3.47;;
52208;SDS011;38507;53.132;6.394;2022-08-21T07:19:22;14.00;;;3.70;;
52208;SDS011;38507;53.132;6.394;2022-08-21T07:21:48;10.57;;;3.13;;
52208;SDS011;38507;53.132;6.394;2022-08-21T07:24:14;9.82;;;2.85;;
52208;SDS011;38507;53.132;6.394;2022-08-21T07:26:40;7.78;;;2.47;;
52208;SDS011;38507;53.132;6.394;2022-08-21T07:29:06;11.18;;;2.60;;
52208;SDS011;38507;53.132;6.394;2022-08-21T07:31:32;10.43;;;2.50;;
52208;SDS011;38507;53.132;6.394;2022-08-21T07:33:57;8.45;;;2.80;;
52208;SDS011;38507;53.132;6.394;2022-08-21T07:36:23;15.88;;;2.83;;
52208;SDS011;38507;53.132;6.394;2022-08-21T07:38:49;10.40;;;2.60;;
52208;SDS011;38507;53.132;6.394;2022-08-21T07:41:19;11.40;;;2.55;;
52208;SDS011;38507;53.132;6.394;2022-08-21T07:43:50;12.52;;;2.88;;
52208;SDS011;38507;53.132;6.394;2022-08-21T07:46:16;11.52;;;2.72;;
52208;SDS011;38507;53.132;6.394;2022-08-21T07:48:42;10.73;;;2.97;;
52208;SDS011;38507;53.132;6.394;2022-08-21T07:51:10;10.90;;;3.85;;
52208;SDS011;38507;53.132;6.394;2022-08-21T07:53:37;10.00;;;2.75;;
52208;SDS011;38507;53.132;6.394;2022-08-21T07:56:04;11.50;;;2.35;;
52208;SDS011;38507;53.132;6.394;2022-08-21T07:58:31;15.23;;;2.65;;
52208;SDS011;38507;53.132;6.394;2022-08-21T08:00:57;13.15;;;2.42;;
52208;SDS011;38507;53.132;6.394;2022-08-21T08:03:23;9.10;;;2.63;;
52208;SDS011;38507;53.132;6.394;2022-08-21T08:05:48;12.98;;;2.92;;
52208;SDS011;38507;53.132;6.394;2022-08-21T08:08:14;11.25;;;2.70;;
52208;SDS011;38507;53.132;6.394;2022-08-21T08:10:40;8.38;;;2.30;;
52208;SDS011;38507;53.132;6.394;2022-08-21T08:13:06;12.20;;;2.22;;
52208;SDS011;38507;53.132;6.394;2022-08-21T08:15:32;10.20;;;3.28;;
52208;SDS011;38507;53.132;6.394;2022-08-21T08:17:57;13.00;;;2.90;;
52208;SDS011;38507;53.132;6.394;2022-08-21T08:20:23;12.05;;;2.75;;
52208;SDS011;38507;53.132;6.394;2022-08-21T08:22:51;9.32;;;2.55;;
52208;SDS011;38507;53.132;6.394;2022-08-21T08:25:18;9.20;;;2.40;;
52208;SDS011;38507;53.132;6.394;2022-08-21T08:27:45;14.73;;;2.58;;
52208;SDS011;38507;53.132;6.394;2022-08-21T08:30:11;10.45;;;2.55;;
52208;SDS011;38507;53.132;6.394;2022-08-21T08:32:39;11.93;;;2.67;;
52208;SDS011;38507;53.132;6.394;2022-08-21T08:35:06;13.73;;;2.70;;
52208;SDS011;38507;53.132;6.394;2022-08-21T08:37:32;9.40;;;2.38;;
52208;SDS011;38507;53.132;6.394;2022-08-21T08:39:58;12.00;;;2.88;;
52208;SDS011;38507;53.132;6.394;2022-08-21T08:42:32;10.38;;;2.90;;
52208;SDS011;38507;53.132;6.394;2022-08-21T08:45:11;11.98;;;2.25;;
52208;SDS011;38507;53.132;6.394;2022-08-21T08:47:39;13.50;;;3.53;;
52208;SDS011;38507;53.132;6.394;2022-08-21T08:50:12;12.95;;;2.78;;
52208;SDS011;38507;53.132;6.394;2022-08-21T08:52:51;15.18;;;2.63;;
52208;SDS011;38507;53.132;6.394;2022-08-21T08:55:35;11.40;;;2.38;;
52208;SDS011;38507;53.132;6.394;2022-08-21T08:58:08;11.95;;;2.78;;
52208;SDS011;38507;53.132;6.394;2022-08-21T09:00:40;14.35;;;2.28;;
52208;SDS011;38507;53.132;6.394;2022-08-21T09:03:05;8.55;;;2.20;;
52208;SDS011;38507;53.132;6.394;2022-08-21T09:08:32;10.02;;;2.80;;
52208;SDS011;38507;53.132;6.394;2022-08-21T09:11:02;11.13;;;2.88;;
52208;SDS011;38507;53.132;6.394;2022-08-21T09:21:28;10.52;;;2.63;;
52208;SDS011;38507;53.132;6.394;2022-08-21T09:27:08;13.32;;;2.70;;
52208;SDS011;38507;53.132;6.394;2022-08-21T09:29:38;16.95;;;3.10;;
52208;SDS011;38507;53.132;6.394;2022-08-21T09:32:15;12.90;;;2.50;;
52208;SDS011;38507;53.132;6.394;2022-08-21T09:34:59;12.18;;;2.28;;
52208;SDS011;38507;53.132;6.394;2022-08-21T09:37:33;9.88;;;2.30;;
52208;SDS011;38507;53.132;6.394;2022-08-21T09:40:17;9.13;;;2.28;;
52208;SDS011;38507;53.132;6.394;2022-08-21T09:43:03;13.73;;;2.38;;
52208;SDS011;38507;53.132;6.394;2022-08-21T09:45:35;8.07;;;1.85;;
52208;SDS011;38507;53.132;6.394;2022-08-21T09:48:12;14.27;;;2.40;;
52208;SDS011;38507;53.132;6.394;2022-08-21T09:50:46;10.10;;;2.10;;
52208;SDS011;38507;53.132;6.394;2022-08-21T09:53:17;10.85;;;2.70;;
52208;SDS011;38507;53.132;6.394;2022-08-21T09:56:14;12.45;;;2.15;;
52208;SDS011;38507;53.132;6.394;2022-08-21T10:02:20;12.77;;;2.30;;
52208;SDS011;38507;53.132;6.394;2022-08-21T10:04:53;10.07;;;2.08;;
52208;SDS011;38507;53.132;6.394;2022-08-21T10:07:30;9.65;;;2.03;;
52208;SDS011;38507;53.132;6.394;2022-08-21T10:12:31;9.63;;;2.10;;
52208;SDS011;38507;53.132;6.394;2022-08-21T10:15:24;8.95;;;2.08;;
52208;SDS011;38507;53.132;6.394;2022-08-21T10:20:44;7.13;;;1.80;;
52208;SDS011;38507;53.132;6.394;2022-08-21T10:29:18;13.27;;;2.10;;
52208;SDS011;38507;53.132;6.394;2022-08-21T10:39:41;11.43;;;2.00;;
52208;SDS011;38507;53.132;6.394;2022-08-21T10:42:24;10.93;;;2.33;;
52208;SDS011;38507;53.132;6.394;2022-08-21T10:47:35;10.90;;;2.60;;
52208;SDS011;38507;53.132;6.394;2022-08-21T10:50:59;13.35;;;2.05;;
52208;SDS011;38507;53.132;6.394;2022-08-21T10:53:15;15.80;;;2.58;;
52208;SDS011;38507;53.132;6.394;2022-08-21T10:55:51;9.43;;;1.97;;
52208;SDS011;38507;53.132;6.394;2022-08-21T10:58:23;10.55;;;2.15;;
52208;SDS011;38507;53.132;6.394;2022-08-21T11:00:57;10.88;;;1.98;;
52208;SDS011;38507;53.132;6.394;2022-08-21T11:03:45;19.58;;;2.60;;
52208;SDS011;38507;53.132;6.394;2022-08-21T11:06:18;10.00;;;2.38;;
52208;SDS011;38507;53.132;6.394;2022-08-21T11:08:55;11.00;;;2.17;;
52208;SDS011;38507;53.132;6.394;2022-08-21T11:11:36;13.38;;;2.97;;
52208;SDS011;38507;53.132;6.394;2022-08-21T11:17:07;9.65;;;2.00;;
52208;SDS011;38507;53.132;6.394;2022-08-21T11:19:45;9.68;;;2.40;;
52208;SDS011;38507;53.132;6.394;2022-08-21T11:25:26;9.50;;;2.05;;
52208;SDS011;38507;53.132;6.394;2022-08-21T11:39:31;6.53;;;1.73;;
52208;SDS011;38507;53.132;6.394;2022-08-21T11:47:43;11.80;;;2.53;;
52208;SDS011;38507;53.132;6.394;2022-08-21T11:55:23;7.80;;;1.77;;
52208;SDS011;38507;53.132;6.394;2022-08-21T11:58:09;8.60;;;2.05;;
52208;SDS011;38507;53.132;6.394;2022-08-21T12:00:44;7.47;;;1.95;;
52208;SDS011;38507;53.132;6.394;2022-08-21T12:03:16;7.65;;;1.63;;
52208;SDS011;38507;53.132;6.394;2022-08-21T12:05:52;10.00;;;2.03;;
52208;SDS011;38507;53.132;6.394;2022-08-21T12:13:28;8.30;;;1.63;;
52208;SDS011;38507;53.132;6.394;2022-08-21T12:16:09;10.35;;;1.85;;
52208;SDS011;38507;53.132;6.394;2022-08-21T12:18:41;7.38;;;1.95;;
52208;SDS011;38507;53.132;6.394;2022-08-21T12:21:19;6.00;;;1.42;;
52208;SDS011;38507;53.132;6.394;2022-08-21T12:24:04;6.32;;;1.42;;
52208;SDS011;38507;53.132;6.394;2022-08-21T12:26:47;6.25;;;1.30;;
52208;SDS011;38507;53.132;6.394;2022-08-21T12:29:22;9.52;;;1.80;;
52208;SDS011;38507;53.132;6.394;2022-08-21T12:31:58;7.55;;;1.70;;
52208;SDS011;38507;53.132;6.394;2022-08-21T12:34:46;9.88;;;1.95;;
52208;SDS011;38507;53.132;6.394;2022-08-21T12:40:17;5.70;;;1.60;;
52208;SDS011;38507;53.132;6.394;2022-08-21T12:43:03;5.22;;;1.55;;
52208;SDS011;38507;53.132;6.394;2022-08-21T12:45:43;6.47;;;1.30;;
52208;SDS011;38507;53.132;6.394;2022-08-21T12:53:51;6.07;;;1.40;;
52208;SDS011;38507;53.132;6.394;2022-08-21T12:56:20;7.25;;;1.52;;
52208;SDS011;38507;53.132;6.394;2022-08-21T12:58:49;6.18;;;1.25;;
52208;SDS011;38507;53.132;6.394;2022-08-21T13:01:21;6.25;;;1.48;;
52208;SDS011;38507;53.132;6.394;2022-08-21T13:03:49;4.47;;;1.20;;
52208;SDS011;38507;53.132;6.394;2022-08-21T13:06:17;7.63;;;1.58;;
52208;SDS011;38507;53.132;6.394;2022-08-21T13:08:45;6.18;;;1.40;;
52208;SDS011;38507;53.132;6.394;2022-08-21T13:11:14;6.00;;;1.33;;
52208;SDS011;38507;53.132;6.394;2022-08-21T13:13:47;7.22;;;1.58;;
52208;SDS011;38507;53.132;6.394;2022-08-21T13:16:17;7.28;;;1.30;;
52208;SDS011;38507;53.132;6.394;2022-08-21T13:18:59;5.80;;;1.30;;
52208;SDS011;38507;53.132;6.394;2022-08-21T13:21:38;7.13;;;1.65;;
52208;SDS011;38507;53.132;6.394;2022-08-21T13:24:17;6.05;;;1.40;;
52208;SDS011;38507;53.132;6.394;2022-08-21T13:26:45;6.35;;;1.20;;
52208;SDS011;38507;53.132;6.394;2022-08-21T13:29:14;6.70;;;1.92;;
52208;SDS011;38507;53.132;6.394;2022-08-21T13:31:46;7.20;;;1.33;;
52208;SDS011;38507;53.132;6.394;2022-08-21T13:34:20;7.57;;;1.27;;
52208;SDS011;38507;53.132;6.394;2022-08-21T13:36:51;5.93;;;1.45;;
52208;SDS011;38507;53.132;6.394;2022-08-21T13:39:19;7.65;;;1.50;;
52208;SDS011;38507;53.132;6.394;2022-08-21T13:41:46;10.50;;;1.92;;
52208;SDS011;38507;53.132;6.394;2022-08-21T13:44:17;10.93;;;1.77;;
52208;SDS011;38507;53.132;6.394;2022-08-21T13:46:51;5.22;;;1.30;;
52208;SDS011;38507;53.132;6.394;2022-08-21T13:49:19;11.43;;;1.60;;
52208;SDS011;38507;53.132;6.394;2022-08-21T13:51:48;9.63;;;1.77;;
52208;SDS011;38507;53.132;6.394;2022-08-21T13:54:24;8.00;;;1.38;;
52208;SDS011;38507;53.132;6.394;2022-08-21T13:56:53;6.53;;;1.52;;
52208;SDS011;38507;53.132;6.394;2022-08-21T13:59:23;7.00;;;1.85;;
52208;SDS011;38507;53.132;6.394;2022-08-21T14:02:01;9.00;;;1.50;;
52208;SDS011;38507;53.132;6.394;2022-08-21T14:04:56;6.30;;;1.25;;
52208;SDS011;38507;53.132;6.394;2022-08-21T14:07:24;9.15;;;1.90;;
52208;SDS011;38507;53.132;6.394;2022-08-21T14:10:02;6.85;;;1.40;;
52208;SDS011;38507;53.132;6.394;2022-08-21T14:12:36;6.28;;;1.20;;
52208;SDS011;38507;53.132;6.394;2022-08-21T14:15:07;8.85;;;1.50;;
52208;SDS011;38507;53.132;6.394;2022-08-21T14:17:35;9.32;;;2.10;;
52208;SDS011;38507;53.132;6.394;2022-08-21T14:20:10;5.75;;;1.30;;
52208;SDS011;38507;53.132;6.394;2022-08-21T14:25:07;6.07;;;1.35;;
52208;SDS011;38507;53.132;6.394;2022-08-21T14:28:10;5.57;;;1.25;;
52208;SDS011;38507;53.132;6.394;2022-08-21T14:30:48;9.23;;;1.65;;
52208;SDS011;38507;53.132;6.394;2022-08-21T14:33:18;6.43;;;1.45;;
52208;SDS011;38507;53.132;6.394;2022-08-21T14:35:56;8.07;;;1.95;;
52208;SDS011;38507;53.132;6.394;2022-08-21T14:38:24;10.07;;;1.27;;
52208;SDS011;38507;53.132;6.394;2022-08-21T14:40:52;6.80;;;1.67;;
52208;SDS011;38507;53.132;6.394;2022-08-21T14:43:21;7.00;;;1.85;;
52208;SDS011;38507;53.132;6.394;2022-08-21T14:45:48;5.28;;;1.10;;
52208;SDS011;38507;53.132;6.394;2022-08-21T14:48:14;4.97;;;1.27;;
52208;SDS011;38507;53.132;6.394;2022-08-21T14:50:40;6.30;;;1.35;;
52208;SDS011;38507;53.132;6.394;2022-08-21T14:53:06;4.20;;;1.05;;
52208;SDS011;38507;53.132;6.394;2022-08-21T14:55:32;6.15;;;1.73;;
52208;SDS011;38507;53.132;6.394;2022-08-21T14:58:21;11.52;;;1.52;;
52208;SDS011;38507;53.132;6.394;2022-08-21T15:00:48;6.20;;;1.30;;
52208;SDS011;38507;53.132;6.394;2022-08-21T15:03:14;10.38;;;2.13;;
52208;SDS011;38507;53.132;6.394;2022-08-21T15:05:40;8.35;;;1.42;;
52208;SDS011;38507;53.132;6.394;2022-08-21T15:08:06;8.23;;;2.10;;
52208;SDS011;38507;53.132;6.394;2022-08-21T15:10:32;7.00;;;1.30;;
52208;SDS011;38507;53.132;6.394;2022-08-21T15:12:59;10.48;;;1.65;;
52208;SDS011;38507;53.132;6.394;2022-08-21T15:15:25;6.63;;;1.48;;
52208;SDS011;38507;53.132;6.394;2022-08-21T15:17:51;11.38;;;1.85;;
52208;SDS011;38507;53.132;6.394;2022-08-21T15:20:16;7.90;;;1.63;;
52208;SDS011;38507;53.132;6.394;2022-08-21T15:22:42;6.03;;;1.33;;
52208;SDS011;38507;53.132;6.394;2022-08-21T15:25:08;4.60;;;1.60;;
52208;SDS011;38507;53.132;6.394;2022-08-21T15:27:34;8.45;;;1.30;;
52208;SDS011;38507;53.132;6.394;2022-08-21T15:29:59;8.02;;;1.50;;
52208;SDS011;38507;53.132;6.394;2022-08-21T15:32:27;6.50;;;1.45;;
52208;SDS011;38507;53.132;6.394;2022-08-21T15:34:54;5.50;;;1.30;;
52208;SDS011;38507;53.132;6.394;2022-08-21T15:37:21;7.60;;;1.42;;
52208;SDS011;38507;53.132;6.394;2022-08-21T15:39:49;8.05;;;1.73;;
52208;SDS011;38507;53.132;6.394;2022-08-21T15:42:16;6.40;;;1.30;;
52208;SDS011;38507;53.132;6.394;2022-08-21T15:44:41;3.72;;;1.10;;
52208;SDS011;38507;53.132;6.394;2022-08-21T15:47:10;4.53;;;1.27;;
52208;SDS011;38507;53.132;6.394;2022-08-21T15:49:39;7.07;;;1.60;;
52208;SDS011;38507;53.132;6.394;2022-08-21T15:52:07;9.55;;;1.63;;
52208;SDS011;38507;53.132;6.394;2022-08-21T15:54:33;7.93;;;1.70;;
52208;SDS011;38507;53.132;6.394;2022-08-21T15:56:59;6.47;;;1.63;;
52208;SDS011;38507;53.132;6.394;2022-08-21T15:59:25;6.88;;;1.52;;
52208;SDS011;38507;53.132;6.394;2022-08-21T16:01:51;6.85;;;1.42;;
52208;SDS011;38507;53.132;6.394;2022-08-21T16:04:21;6.65;;;1.40;;
52208;SDS011;38507;53.132;6.394;2022-08-21T16:06:49;9.20;;;1.80;;
52208;SDS011;38507;53.132;6.394;2022-08-21T16:09:15;10.57;;;1.52;;
52208;SDS011;38507;53.132;6.394;2022-08-21T16:11:41;6.78;;;1.40;;
52208;SDS011;38507;53.132;6.394;2022-08-21T16:14:07;8.40;;;1.48;;
52208;SDS011;38507;53.132;6.394;2022-08-21T16:16:35;8.40;;;1.60;;